createdAt,value
2023-06-10T00:02:00.931Z,12.70
2023-06-10T00:05:04.372Z,11.35
2023-06-10T00:08:11.420Z,11.48
2023-06-10T00:11:14.165Z,10.68
2023-06-10T00:14:16.732Z,11.10
2023-06-10T00:17:19.705Z,8.77
2023-06-10T00:20:25.982Z,11.25
2023-06-10T00:23:30.454Z,10.77
2023-06-10T00:26:33.883Z,10.07
2023-06-10T00:29:36.434Z,9.50
2023-06-10T00:32:39.183Z,12.68
2023-06-10T00:35:41.763Z,8.57
2023-06-10T00:38:45.475Z,9.88
2023-06-10T00:41:47.964Z,10.05
2023-06-10T00:44:51.879Z,11.50
2023-06-10T00:47:54.825Z,9.40
2023-06-10T00:50:58.276Z,9.27
2023-06-10T00:54:01.346Z,8.43
2023-06-10T00:57:04.089Z,9.73
2023-06-10T01:00:09.421Z,10.27
2023-06-10T01:03:13.261Z,11.02
2023-06-10T01:06:30.427Z,10.77
2023-06-10T01:09:39.064Z,10.35
2023-06-10T01:13:03.699Z,12.52
2023-06-10T01:16:07.004Z,10.45
2023-06-10T01:19:10.846Z,12.65
2023-06-10T01:22:17.164Z,9.00
2023-06-10T01:25:21.964Z,9.52
2023-06-10T01:31:38.859Z,10.55
2023-06-10T01:34:44.613Z,8.63
2023-06-10T01:37:49.538Z,10.75
2023-06-10T01:40:54.616Z,10.15
2023-06-10T01:43:57.546Z,12.32
2023-06-10T01:47:00.214Z,9.13
2023-06-10T01:50:04.080Z,13.27
2023-06-10T01:53:06.915Z,13.55
2023-06-10T01:56:09.588Z,11.75
2023-06-10T01:59:12.265Z,12.18
2023-06-10T02:02:15.053Z,11.77
2023-06-10T02:05:17.548Z,9.90
2023-06-10T02:08:20.129Z,8.95
2023-06-10T02:11:23.018Z,9.75
2023-06-10T02:14:25.838Z,9.52
2023-06-10T02:17:28.789Z,7.13
2023-06-10T02:20:32.001Z,9.48
2023-06-10T02:23:34.589Z,8.65
2023-06-10T02:26:41.403Z,9.93
2023-06-10T02:29:44.540Z,8.60
2023-06-10T02:32:49.363Z,11.73
2023-06-10T02:35:54.104Z,11.77
2023-06-10T02:38:56.808Z,13.02
2023-06-10T02:41:59.709Z,9.85
2023-06-10T02:45:02.837Z,8.45
2023-06-10T02:48:16.006Z,8.52
2023-06-10T02:51:18.841Z,8.93
2023-06-10T02:54:27.468Z,10.77
2023-06-10T02:57:32.023Z,10.73
2023-06-10T03:00:38.146Z,8.38
2023-06-10T03:03:43.883Z,8.93
2023-06-10T03:06:51.048Z,8.65
2023-06-10T03:10:00.186Z,12.93
2023-06-10T03:13:03.067Z,7.68
2023-06-10T03:16:06.394Z,8.15
2023-06-10T03:19:11.931Z,7.45
2023-06-10T03:22:18.137Z,8.10
2023-06-10T03:25:50.259Z,13.60
2023-06-10T03:28:55.233Z,7.65
2023-06-10T03:32:00.265Z,7.47
2023-06-10T03:35:04.170Z,7.07
2023-06-10T03:38:08.660Z,9.55
2023-06-10T03:41:11.341Z,8.48
2023-06-10T03:44:16.965Z,10.88
2023-06-10T03:47:20.007Z,11.10
2023-06-10T03:50:24.671Z,8.75
2023-06-10T03:56:30.075Z,7.82
2023-06-10T03:59:32.714Z,8.30
2023-06-10T04:02:35.914Z,9.23
2023-06-10T04:05:38.621Z,9.48
2023-06-10T04:08:41.673Z,9.38
2023-06-10T04:11:44.311Z,8.52
2023-06-10T04:14:47.080Z,8.68
2023-06-10T04:17:50.514Z,10.02
2023-06-10T04:20:56.688Z,11.05
2023-06-10T04:23:59.661Z,8.38
2023-06-10T04:27:02.415Z,9.25
2023-06-10T04:30:05.682Z,9.55
2023-06-10T04:33:10.947Z,8.25
2023-06-10T04:36:15.836Z,7.78
2023-06-10T04:39:18.592Z,9.05
2023-06-10T04:42:21.729Z,8.90
2023-06-10T04:45:24.700Z,8.90
2023-06-10T04:48:27.849Z,8.45
2023-06-10T04:51:30.538Z,10.13
2023-06-10T04:54:33.903Z,11.15
2023-06-10T04:57:36.473Z,9.63
2023-06-10T05:00:39.003Z,8.10
2023-06-10T05:03:42.615Z,9.25
2023-06-10T05:06:45.761Z,11.18
2023-06-10T05:09:48.409Z,7.82
2023-06-10T05:12:50.982Z,7.63
2023-06-10T05:15:53.474Z,7.65
2023-06-10T05:18:56.102Z,8.90
2023-06-10T05:21:58.632Z,7.00
2023-06-10T05:25:01.397Z,7.05
2023-06-10T05:28:04.115Z,7.50
2023-06-10T05:31:06.722Z,7.13
2023-06-10T05:34:10.210Z,7.75
2023-06-10T05:37:13.883Z,8.73
2023-06-10T05:40:16.470Z,11.65
2023-06-10T05:43:19.053Z,11.02
2023-06-10T05:46:22.042Z,7.35
2023-06-10T05:49:24.562Z,6.38
2023-06-10T05:52:27.293Z,8.45
2023-06-10T05:55:31.280Z,5.40
2023-06-10T05:58:34.069Z,8.15
2023-06-10T06:01:36.721Z,9.00
2023-06-10T06:04:39.702Z,7.13
2023-06-10T06:07:42.626Z,8.88
2023-06-10T06:10:49.075Z,6.95
2023-06-10T06:13:53.465Z,7.18
2023-06-10T06:16:56.308Z,14.98
2023-06-10T06:19:58.858Z,7.88
2023-06-10T06:23:01.417Z,8.50
2023-06-10T06:26:04.504Z,8.50
2023-06-10T06:29:08.907Z,8.63
2023-06-10T06:32:11.489Z,7.38
2023-06-10T06:35:14.601Z,10.90
2023-06-10T06:38:17.158Z,7.32
2023-06-10T06:41:20.664Z,9.45
2023-06-10T06:44:23.245Z,8.43
2023-06-10T06:47:30.000Z,9.60
2023-06-10T06:50:32.620Z,16.70
2023-06-10T06:53:35.200Z,15.25
2023-06-10T06:56:39.356Z,7.63
2023-06-10T06:59:42.151Z,7.45
2023-06-10T07:02:44.731Z,7.90
2023-06-10T07:05:47.275Z,11.88
2023-06-10T07:08:51.485Z,11.02
2023-06-10T07:11:53.992Z,7.15
2023-06-10T07:14:56.586Z,7.53
2023-06-10T07:17:59.203Z,7.38
2023-06-10T07:21:02.717Z,9.98
2023-06-10T07:24:05.626Z,7.55
2023-06-10T07:27:08.426Z,6.85
2023-06-10T07:30:12.223Z,9.15
2023-06-10T07:33:14.881Z,12.07
2023-06-10T07:36:17.484Z,9.55
2023-06-10T07:39:20.133Z,8.88
2023-06-10T07:42:22.793Z,6.30
2023-06-10T07:45:25.383Z,8.50
2023-06-10T07:48:28.122Z,7.43
2023-06-10T07:51:30.873Z,8.90
2023-06-10T07:54:33.458Z,10.63
2023-06-10T07:57:37.668Z,7.65
2023-06-10T08:00:40.296Z,6.25
2023-06-10T08:03:44.158Z,7.32
2023-06-10T08:09:49.611Z,7.10
2023-06-10T08:12:52.097Z,12.05
2023-06-10T08:15:56.371Z,8.93
2023-06-10T08:18:58.923Z,10.50
2023-06-10T08:22:01.505Z,11.23
2023-06-10T08:25:04.780Z,10.45
2023-06-10T08:28:07.595Z,9.07
2023-06-10T08:31:10.065Z,9.48
2023-06-10T08:34:13.124Z,10.25
2023-06-10T08:37:15.733Z,8.45
2023-06-10T08:40:18.373Z,8.80
2023-06-10T08:43:35.161Z,8.77
2023-06-10T08:46:38.881Z,9.07
2023-06-10T08:49:45.449Z,9.32
2023-06-10T08:52:51.341Z,10.65
2023-06-10T08:55:58.295Z,9.98
2023-06-10T08:59:01.201Z,11.77
2023-06-10T09:02:05.640Z,12.13
2023-06-10T09:05:09.838Z,12.02
2023-06-10T09:08:12.687Z,11.10
2023-06-10T09:11:15.686Z,10.93
2023-06-10T09:14:18.376Z,12.15
2023-06-10T09:17:21.022Z,12.75
2023-06-10T09:20:24.728Z,29.23
2023-06-10T09:23:28.664Z,18.45
2023-06-10T09:26:31.308Z,15.40
2023-06-10T09:29:56.221Z,11.90
2023-06-10T09:33:03.223Z,13.65
2023-06-10T09:36:06.172Z,11.48
2023-06-10T09:39:18.130Z,11.52
2023-06-10T09:42:20.940Z,12.88
2023-06-10T09:45:24.543Z,12.27
2023-06-10T09:48:27.056Z,12.80
2023-06-10T09:51:30.194Z,16.38
2023-06-10T09:54:33.304Z,13.90
2023-06-10T09:57:37.085Z,17.33
2023-06-10T10:00:40.169Z,16.42
2023-06-10T10:03:52.136Z,16.88
2023-06-10T10:06:54.631Z,15.77
2023-06-10T10:09:57.174Z,16.08
2023-06-10T10:13:01.568Z,19.17
2023-06-10T10:16:11.597Z,17.05
2023-06-10T10:19:21.671Z,20.33
2023-06-10T10:22:28.115Z,20.02
2023-06-10T10:25:37.223Z,20.13
2023-06-10T10:28:46.579Z,20.52
2023-06-10T10:31:52.298Z,17.35
2023-06-10T10:35:07.088Z,16.08
2023-06-10T10:38:10.566Z,16.67
2023-06-10T10:41:14.118Z,15.70
2023-06-10T10:44:17.685Z,15.80
2023-06-10T10:47:23.639Z,17.40
2023-06-10T10:50:32.001Z,15.57
2023-06-10T10:53:34.703Z,14.80
2023-06-10T10:56:37.531Z,14.85
2023-06-10T10:59:53.368Z,13.88
2023-06-10T11:03:02.208Z,13.38
2023-06-10T11:06:14.022Z,16.95
2023-06-10T11:12:47.445Z,18.80
2023-06-10T11:15:57.848Z,30.35
2023-06-10T11:22:05.216Z,14.20
2023-06-10T11:25:15.198Z,13.30
2023-06-10T11:28:21.348Z,14.13
2023-06-10T11:31:30.916Z,15.23
2023-06-10T11:34:33.560Z,16.33
2023-06-10T11:37:36.486Z,13.13
2023-06-10T11:40:39.743Z,13.55
2023-06-10T11:43:45.241Z,16.42
2023-06-10T11:46:51.316Z,14.57
2023-06-10T11:49:58.087Z,15.35
2023-06-10T11:53:01.163Z,16.13
2023-06-10T11:56:03.808Z,15.88
2023-06-10T11:59:08.725Z,15.60
2023-06-10T12:02:20.524Z,15.25
2023-06-10T12:05:23.506Z,14.50
2023-06-10T12:08:28.521Z,13.70
2023-06-10T12:11:31.201Z,14.45
2023-06-10T12:14:58.600Z,15.07
2023-06-10T12:18:02.719Z,13.25
2023-06-10T12:21:17.203Z,10.48
2023-06-10T12:24:19.882Z,11.18
2023-06-10T12:27:22.791Z,8.52
2023-06-10T12:30:29.940Z,7.30
2023-06-10T12:33:32.520Z,7.10
2023-06-10T12:36:35.478Z,7.50
2023-06-10T12:39:38.041Z,9.55
2023-06-10T12:42:41.025Z,8.38
2023-06-10T12:45:47.077Z,6.25
2023-06-10T12:48:53.140Z,6.65
2023-06-10T12:51:56.209Z,7.28
2023-06-10T12:54:59.680Z,7.40
2023-06-10T12:58:02.961Z,5.03
2023-06-10T13:01:05.754Z,6.95
2023-06-10T13:04:08.742Z,5.97
2023-06-10T13:07:11.735Z,5.13
2023-06-10T13:10:17.785Z,6.85
2023-06-10T13:13:20.445Z,4.97
2023-06-10T13:16:22.998Z,4.28
2023-06-10T13:19:25.639Z,5.15
2023-06-10T13:22:28.670Z,4.63
2023-06-10T13:25:31.225Z,4.43
2023-06-10T13:28:36.023Z,5.10
2023-06-10T13:31:38.848Z,4.93
2023-06-10T13:34:41.599Z,4.93
2023-06-10T13:37:44.187Z,4.57
2023-06-10T13:40:46.783Z,7.07
2023-06-10T13:43:49.443Z,6.47
2023-06-10T13:46:52.061Z,11.38
2023-06-10T13:49:54.771Z,5.47
2023-06-10T13:52:57.700Z,5.90
2023-06-10T13:56:00.765Z,8.07
2023-06-10T13:59:04.653Z,6.05
2023-06-10T14:02:07.670Z,5.70
2023-06-10T14:05:10.690Z,7.13
2023-06-10T14:08:13.428Z,4.85
2023-06-10T14:11:16.176Z,6.80
2023-06-10T14:14:18.687Z,7.20
2023-06-10T14:17:21.220Z,7.30
2023-06-10T14:20:24.499Z,6.18
2023-06-10T14:23:27.717Z,6.47
2023-06-10T14:26:30.247Z,5.85
2023-06-10T14:29:34.702Z,5.75
2023-06-10T14:32:37.404Z,5.53
2023-06-10T14:35:40.057Z,7.65
2023-06-10T14:38:42.889Z,4.93
2023-06-10T14:41:45.576Z,5.82
2023-06-10T14:44:48.292Z,5.32
2023-06-10T14:47:51.111Z,5.13
2023-06-10T14:50:55.878Z,5.40
2023-06-10T14:53:59.436Z,5.45
2023-06-10T14:57:02.387Z,5.53
2023-06-10T15:00:06.872Z,5.03
2023-06-10T15:03:09.662Z,5.53
2023-06-10T15:06:12.473Z,6.13
2023-06-10T15:09:15.175Z,5.55
2023-06-10T15:12:17.815Z,5.03
2023-06-10T15:15:20.541Z,8.45
2023-06-10T15:18:23.185Z,6.32
2023-06-10T15:21:25.725Z,8.80
2023-06-10T15:24:28.268Z,6.45
2023-06-10T15:27:30.846Z,5.93
2023-06-10T15:30:33.486Z,6.90
2023-06-10T15:33:36.002Z,6.90
2023-06-10T15:36:38.576Z,4.65
2023-06-10T15:39:41.827Z,3.80
2023-06-10T15:42:44.823Z,4.03
2023-06-10T15:45:47.542Z,5.30
2023-06-10T15:48:50.246Z,4.55
2023-06-10T15:51:52.824Z,6.10
2023-06-10T15:54:55.511Z,4.78
2023-06-10T15:58:01.681Z,4.68
2023-06-10T16:01:04.344Z,4.93
2023-06-10T16:04:06.894Z,8.40
2023-06-10T16:07:09.716Z,5.90
2023-06-10T16:10:12.452Z,4.78
2023-06-10T16:13:16.404Z,7.57
2023-06-10T16:16:19.007Z,8.00
2023-06-10T16:19:21.595Z,6.88
2023-06-10T16:22:24.065Z,5.70
2023-06-10T16:25:26.620Z,17.95
2023-06-10T16:28:29.180Z,7.30
2023-06-10T16:31:32.231Z,6.22
2023-06-10T16:34:35.000Z,7.78
2023-06-10T16:37:37.778Z,6.28
2023-06-10T16:40:40.392Z,5.32
2023-06-10T16:43:42.956Z,9.00
2023-06-10T16:46:45.532Z,5.28
2023-06-10T16:49:50.430Z,7.03
2023-06-10T16:52:53.575Z,6.22
2023-06-10T16:55:56.307Z,8.02
2023-06-10T16:58:58.897Z,8.02
2023-06-10T17:02:03.587Z,6.60
2023-06-10T17:05:07.331Z,7.10
2023-06-10T17:08:10.349Z,6.40
2023-06-10T17:11:13.087Z,6.40
2023-06-10T17:14:15.760Z,6.10
2023-06-10T17:17:18.525Z,6.47
2023-06-10T17:20:21.756Z,9.90
2023-06-10T17:23:24.673Z,7.00
2023-06-10T17:26:28.164Z,6.95
2023-06-10T17:29:30.681Z,8.35
2023-06-10T17:32:34.585Z,6.43
2023-06-10T17:35:37.470Z,8.95
2023-06-10T17:38:40.822Z,7.80
2023-06-10T17:41:43.374Z,8.93
2023-06-10T17:44:45.945Z,7.40
2023-06-10T17:47:48.559Z,8.63
2023-06-10T17:50:51.126Z,7.05
2023-06-10T17:53:53.655Z,6.10
2023-06-10T17:56:56.233Z,9.15
2023-06-10T17:59:59.692Z,7.65
2023-06-10T18:03:02.586Z,7.22
2023-06-10T18:06:05.427Z,8.90
2023-06-10T18:09:10.820Z,10.50
2023-06-10T18:12:15.082Z,7.20
2023-06-10T18:15:17.781Z,8.05
2023-06-10T18:18:20.580Z,5.75
2023-06-10T18:21:23.247Z,10.68
2023-06-10T18:24:26.021Z,11.40
2023-06-10T18:27:29.720Z,8.13
2023-06-10T18:30:32.342Z,13.13
2023-06-10T18:33:35.011Z,7.82
2023-06-10T18:36:37.609Z,8.85
2023-06-10T18:39:40.381Z,7.95
2023-06-10T18:42:42.871Z,8.23
2023-06-10T18:45:45.642Z,7.90
2023-06-10T18:48:50.351Z,9.90
2023-06-10T18:51:53.292Z,8.27
2023-06-10T18:54:55.846Z,8.32
2023-06-10T18:57:58.401Z,9.70
2023-06-10T19:01:01.428Z,9.00
2023-06-10T19:04:04.440Z,8.95
2023-06-10T19:07:07.025Z,8.02
2023-06-10T19:10:09.907Z,7.90
2023-06-10T19:13:12.419Z,7.53
2023-06-10T19:16:14.988Z,10.52
2023-06-10T19:19:18.285Z,10.02
2023-06-10T19:22:21.117Z,10.38
2023-06-10T19:25:23.888Z,10.80
2023-06-10T19:28:26.930Z,9.55
2023-06-10T19:31:29.705Z,9.35
2023-06-10T19:34:32.315Z,7.97
2023-06-10T19:37:34.965Z,8.52
2023-06-10T19:40:37.675Z,9.85
2023-06-10T19:43:40.226Z,7.88
2023-06-10T19:46:43.426Z,9.18
2023-06-10T19:49:46.026Z,9.73
2023-06-10T19:52:49.667Z,8.30
2023-06-10T19:55:52.347Z,9.48
2023-06-10T19:58:57.164Z,8.65
2023-06-10T20:02:00.894Z,8.07
2023-06-10T20:05:04.775Z,9.70
2023-06-10T20:08:08.315Z,13.45
2023-06-10T20:11:11.966Z,7.95
2023-06-10T20:14:15.172Z,15.07
2023-06-10T20:17:17.881Z,7.13
2023-06-10T20:20:20.613Z,10.18
2023-06-10T20:23:23.412Z,7.82
2023-06-10T20:26:26.074Z,9.25
2023-06-10T20:29:28.655Z,11.65
2023-06-10T20:32:31.219Z,9.55
2023-06-10T20:35:34.412Z,9.60
2023-06-10T20:38:37.012Z,8.52
2023-06-10T20:41:39.643Z,7.88
2023-06-10T20:44:42.526Z,9.27
2023-06-10T20:47:45.568Z,14.48
2023-06-10T20:50:48.148Z,8.80
2023-06-10T20:53:51.627Z,8.68
2023-06-10T20:56:54.141Z,10.32
2023-06-10T20:59:57.698Z,9.52
2023-06-10T21:03:00.301Z,7.82
2023-06-10T21:06:03.506Z,8.65
2023-06-10T21:09:06.087Z,8.73
2023-06-10T21:12:09.222Z,9.80
2023-06-10T21:15:12.257Z,11.13
2023-06-10T21:18:16.589Z,10.60
2023-06-10T21:21:19.289Z,10.65
2023-06-10T21:24:22.994Z,7.97
2023-06-10T21:27:25.929Z,9.95
2023-06-10T21:30:30.800Z,7.68
2023-06-10T21:33:33.573Z,11.95
2023-06-10T21:36:36.476Z,10.57
2023-06-10T21:39:39.048Z,15.05
2023-06-10T21:42:42.043Z,11.38
2023-06-10T21:45:45.134Z,9.85
2023-06-10T21:51:52.388Z,9.38
2023-06-10T21:54:55.530Z,8.52
2023-06-10T21:57:58.735Z,9.55
2023-06-10T22:01:02.936Z,13.77
2023-06-10T22:07:09.850Z,10.13
2023-06-10T22:10:12.462Z,8.57
2023-06-10T22:13:17.109Z,11.38
2023-06-10T22:16:20.187Z,11.07
2023-06-10T22:19:23.155Z,12.40
2023-06-10T22:22:26.480Z,12.18
2023-06-10T22:25:29.832Z,12.70
2023-06-10T22:28:32.413Z,11.18
2023-06-10T22:31:35.258Z,9.88
2023-06-10T22:34:39.868Z,11.18
2023-06-10T22:37:42.501Z,10.27
2023-06-10T22:40:45.243Z,10.00
2023-06-10T22:43:48.988Z,8.70
2023-06-10T22:46:51.645Z,11.75
2023-06-10T22:49:54.196Z,10.23
2023-06-10T22:52:56.848Z,11.55
2023-06-10T22:55:59.342Z,11.10
2023-06-10T22:59:03.719Z,11.85
2023-06-10T23:02:06.755Z,11.60
2023-06-10T23:05:11.062Z,9.52
2023-06-10T23:08:13.934Z,9.77
2023-06-10T23:11:16.716Z,8.68
2023-06-10T23:14:19.306Z,11.15
2023-06-10T23:17:21.999Z,10.05
2023-06-10T23:20:27.512Z,11.40
2023-06-10T23:23:35.982Z,13.52
2023-06-10T23:26:39.608Z,11.63
2023-06-10T23:29:56.519Z,13.35
2023-06-10T23:33:02.271Z,11.43
2023-06-10T23:36:05.068Z,16.38
2023-06-10T23:39:11.135Z,12.38
2023-06-10T23:42:14.209Z,10.75
2023-06-10T23:45:17.357Z,12.90
2023-06-10T23:48:19.885Z,12.95
2023-06-10T23:51:22.752Z,13.57
2023-06-10T23:54:27.085Z,12.63
2023-06-10T23:57:29.832Z,11.55
